createdAt,value
2019-03-01T00:02:02.039Z,84.10
2019-03-01T00:04:39.612Z,83.50
2019-03-01T00:07:44.395Z,83.00
2019-03-01T00:10:16.251Z,81.40
2019-03-01T00:12:59.728Z,81.50
2019-03-01T00:15:40.101Z,81.90
2019-03-01T00:18:23.566Z,81.50
2019-03-01T00:21:20.591Z,82.00
2019-03-01T00:24:04.127Z,83.00
2019-03-01T00:26:38.908Z,83.00
2019-03-01T00:29:13.591Z,82.30
2019-03-01T00:31:51.176Z,82.90
2019-03-01T00:34:32.128Z,82.90
2019-03-01T00:37:27.671Z,81.20
2019-03-01T00:40:02.428Z,80.70
2019-03-01T00:42:40.038Z,80.70
2019-03-01T00:45:09.259Z,81.90
2019-03-01T00:47:38.057Z,81.40
2019-03-01T00:50:09.285Z,81.70
2019-03-01T00:52:38.148Z,82.50
2019-03-01T00:55:08.431Z,80.80
2019-03-01T00:57:37.235Z,81.00
2019-03-01T01:00:09.044Z,80.20
2019-03-01T01:02:37.940Z,79.50
2019-03-01T01:05:07.277Z,78.50
2019-03-01T01:07:36.085Z,77.50
2019-03-01T01:10:05.379Z,78.90
2019-03-01T01:12:34.181Z,78.90
2019-03-01T01:15:03.008Z,79.40
2019-03-01T01:17:31.831Z,78.90
2019-03-01T01:20:00.576Z,79.80
2019-03-01T01:22:29.333Z,79.10
2019-03-01T01:24:58.079Z,79.30
2019-03-01T01:27:26.958Z,79.10
2019-03-01T01:29:55.774Z,80.30
2019-03-01T01:32:24.525Z,80.40
2019-03-01T01:34:53.261Z,78.70
2019-03-01T01:37:22.022Z,78.90
2019-03-01T01:39:50.846Z,77.80
2019-03-01T01:42:19.577Z,77.80
2019-03-01T01:44:48.348Z,78.50
2019-03-01T01:47:17.195Z,79.70
2019-03-01T01:49:45.934Z,81.40
2019-03-01T01:52:45.193Z,80.60
2019-03-01T01:55:14.039Z,78.70
2019-03-01T01:57:42.799Z,79.90
2019-03-01T02:00:13.290Z,81.30
2019-03-01T02:02:42.178Z,82.00
2019-03-01T02:13:17.690Z,81.00
2019-03-01T02:15:46.437Z,80.70
2019-03-01T02:18:15.184Z,80.00
2019-03-01T02:20:43.950Z,77.10
2019-03-01T02:23:13.105Z,75.80
2019-03-01T02:25:41.839Z,74.50
2019-03-01T02:28:10.602Z,75.50
2019-03-01T02:30:44.942Z,76.80
2019-03-01T02:33:13.742Z,75.90
2019-03-01T02:35:42.520Z,76.00
2019-03-01T02:38:11.343Z,76.10
2019-03-01T02:40:40.221Z,78.30
2019-03-01T02:43:09.044Z,80.10
2019-03-01T02:45:37.977Z,79.80
2019-03-01T02:48:06.822Z,78.20
2019-03-01T02:50:35.604Z,78.30
2019-03-01T02:53:04.701Z,77.90
2019-03-01T02:55:33.512Z,78.10
2019-03-01T02:58:02.339Z,79.30
2019-03-01T03:00:31.823Z,77.00
2019-03-01T03:03:00.591Z,77.70
2019-03-01T03:05:29.384Z,78.50
2019-03-01T03:07:59.958Z,76.70
2019-03-01T03:10:28.769Z,77.10
2019-03-01T03:13:05.751Z,75.40
2019-03-01T03:15:36.244Z,76.10
2019-03-01T03:18:05.084Z,74.50
2019-03-01T03:20:33.884Z,74.60
2019-03-01T03:23:03.048Z,74.70
2019-03-01T03:25:31.894Z,75.80
2019-03-01T03:28:00.625Z,75.90
2019-03-01T03:30:29.915Z,75.30
2019-03-01T03:32:58.729Z,75.90
2019-03-01T03:35:27.445Z,77.10
2019-03-01T03:37:56.377Z,77.00
2019-03-01T03:40:25.191Z,74.70
2019-03-01T03:42:53.992Z,76.60
2019-03-01T03:45:22.992Z,78.30
2019-03-01T03:47:51.776Z,77.20
2019-03-01T03:50:20.515Z,77.50
2019-03-01T03:52:49.312Z,77.70
2019-03-01T03:55:18.705Z,75.60
2019-03-01T03:57:47.951Z,75.00
2019-03-01T04:00:22.214Z,74.00
2019-03-01T04:02:50.998Z,72.80
2019-03-01T04:05:19.847Z,72.10
2019-03-01T04:07:48.652Z,72.50
2019-03-01T04:10:17.531Z,71.70
2019-03-01T04:12:46.367Z,72.20
2019-03-01T04:15:16.543Z,72.10
2019-03-01T04:17:45.472Z,72.90
2019-03-01T04:20:18.131Z,76.10
2019-03-01T04:22:47.169Z,76.50
2019-03-01T04:25:16.058Z,75.90
2019-03-01T04:27:44.926Z,77.20
2019-03-01T04:30:18.527Z,78.10
2019-03-01T04:32:47.351Z,77.90
2019-03-01T04:35:16.875Z,78.60
2019-03-01T04:37:45.779Z,78.40
2019-03-01T04:40:15.435Z,79.30
2019-03-01T04:42:44.225Z,79.30
2019-03-01T04:45:17.634Z,78.90
2019-03-01T04:47:49.363Z,78.90
2019-03-01T04:50:19.471Z,80.30
2019-03-01T04:52:48.345Z,79.60
2019-03-01T04:55:22.181Z,79.20
2019-03-01T04:57:54.112Z,78.20
2019-03-01T05:00:24.525Z,78.00
2019-03-01T05:02:53.364Z,76.40
2019-03-01T05:05:22.260Z,75.80
2019-03-01T05:07:51.156Z,77.30
2019-03-01T05:10:20.269Z,78.50
2019-03-01T05:12:49.126Z,80.00
2019-03-01T05:15:20.544Z,80.30
2019-03-01T05:17:49.402Z,77.90
2019-03-01T05:20:18.293Z,76.20
2019-03-01T05:22:47.239Z,74.80
2019-03-01T05:25:18.987Z,76.60
2019-03-01T05:27:47.881Z,78.40
2019-03-01T05:30:20.229Z,80.40
2019-03-01T05:32:56.637Z,79.70
2019-03-01T05:35:25.501Z,80.60
2019-03-01T05:37:57.009Z,79.50
2019-03-01T05:40:33.115Z,76.20
2019-03-01T05:43:01.946Z,75.00
2019-03-01T05:45:32.174Z,72.60
2019-03-01T05:48:00.984Z,71.00
2019-03-01T05:50:29.914Z,70.40
2019-03-01T05:52:58.787Z,68.80
2019-03-01T05:55:27.577Z,68.30
2019-03-01T05:58:27.896Z,67.90
2019-03-01T06:00:59.275Z,67.90
2019-03-01T06:03:45.994Z,67.70
2019-03-01T06:06:32.484Z,67.00
2019-03-01T06:09:17.727Z,67.20
2019-03-01T06:11:52.431Z,68.20
2019-03-01T06:14:41.881Z,68.30
2019-03-01T06:17:34.076Z,67.70
2019-03-01T06:20:05.803Z,67.50
2019-03-01T06:22:37.703Z,67.40
2019-03-01T06:25:21.308Z,67.90
2019-03-01T06:28:21.416Z,67.70
2019-03-01T06:31:21.708Z,66.10
2019-03-01T06:33:59.178Z,68.40
2019-03-01T06:36:42.949Z,70.00
2019-03-01T06:39:39.935Z,69.50
2019-03-01T06:42:29.768Z,68.70
2019-03-01T06:45:20.981Z,69.00
2019-03-01T06:47:49.807Z,68.70
2019-03-01T06:50:23.131Z,70.70
2019-03-01T06:52:51.955Z,69.50
2019-03-01T06:55:41.788Z,69.10
2019-03-01T06:58:13.500Z,71.50
2019-03-01T07:00:50.117Z,72.00
2019-03-01T07:03:14.544Z,75.40
2019-03-01T07:08:42.849Z,76.00
2019-03-01T07:11:11.881Z,76.50
2019-03-01T07:13:40.691Z,76.40
2019-03-01T07:16:10.206Z,75.20
2019-03-01T07:18:42.079Z,74.30
2019-03-01T07:21:10.872Z,72.90
2019-03-01T07:23:45.122Z,72.10
2019-03-01T07:26:14.677Z,70.80
2019-03-01T07:28:46.573Z,70.20
2019-03-01T07:31:15.465Z,72.50
2019-03-01T07:33:44.435Z,72.30
2019-03-01T07:36:16.112Z,70.90
2019-03-01T07:38:46.781Z,70.50
2019-03-01T07:41:15.608Z,69.60
2019-03-01T07:43:44.558Z,69.90
2019-03-01T07:46:14.342Z,68.40
2019-03-01T07:48:43.252Z,67.70
2019-03-01T07:51:12.121Z,68.70
2019-03-01T07:53:42.371Z,69.30
2019-03-01T07:56:14.119Z,67.60
2019-03-01T07:58:44.658Z,67.30
2019-03-01T08:01:13.505Z,67.00
2019-03-01T08:03:49.963Z,65.80
2019-03-01T08:06:15.894Z,65.50
2019-03-01T08:08:44.775Z,69.40
2019-03-01T08:11:13.576Z,70.90
2019-03-01T08:13:42.991Z,72.70
2019-03-01T08:16:16.569Z,73.20
2019-03-01T08:18:45.536Z,72.00
2019-03-01T08:21:15.359Z,71.20
2019-03-01T08:23:44.659Z,69.60
2019-03-01T08:26:15.048Z,68.20
2019-03-01T08:28:46.725Z,69.30
2019-03-01T08:31:17.475Z,68.70
2019-03-01T08:33:47.764Z,68.80
2019-03-01T08:36:21.234Z,68.50
2019-03-01T08:38:49.992Z,67.00
2019-03-01T08:41:24.991Z,66.50
2019-03-01T08:43:53.418Z,66.80
2019-03-01T08:46:27.281Z,66.40
2019-03-01T08:48:56.190Z,67.50
2019-03-01T08:51:26.442Z,67.70
2019-03-01T08:53:57.342Z,69.50
2019-03-01T08:56:26.629Z,68.20
2019-03-01T08:58:56.678Z,65.40
2019-03-01T09:01:27.212Z,66.60
2019-03-01T09:03:58.983Z,67.80
2019-03-01T09:06:27.944Z,67.50
2019-03-01T09:08:56.807Z,68.00
2019-03-01T09:11:25.570Z,66.90
2019-03-01T09:13:54.315Z,66.00
2019-03-01T09:16:23.049Z,64.70
2019-03-01T09:18:51.865Z,67.30
2019-03-01T09:21:20.656Z,70.70
2019-03-01T09:23:52.207Z,68.90
2019-03-01T09:26:20.731Z,69.00
2019-03-01T09:28:49.623Z,70.70
2019-03-01T09:31:18.326Z,72.80
2019-03-01T09:33:46.991Z,71.80
2019-03-01T09:36:20.523Z,70.60
2019-03-01T09:38:49.563Z,69.10
2019-03-01T09:41:20.703Z,67.30
2019-03-01T09:43:49.515Z,65.50
2019-03-01T09:46:20.804Z,63.60
2019-03-01T09:48:50.578Z,63.80
2019-03-01T09:51:20.966Z,63.70
2019-03-01T09:53:49.751Z,62.70
2019-03-01T09:56:18.539Z,63.90
2019-03-01T09:58:47.345Z,63.90
2019-03-01T10:01:21.258Z,64.00
2019-03-01T10:03:50.824Z,63.60
2019-03-01T10:06:19.593Z,65.30
2019-03-01T10:08:49.487Z,65.40
2019-03-01T10:11:18.487Z,67.50
2019-03-01T10:13:47.395Z,66.70
2019-03-01T10:16:16.287Z,70.80
2019-03-01T10:18:45.028Z,73.50
2019-03-01T10:21:14.093Z,74.30
2019-03-01T10:23:44.578Z,71.20
2019-03-01T10:26:13.313Z,72.00
2019-03-01T10:28:42.070Z,71.80
2019-03-01T10:31:10.909Z,70.80
2019-03-01T10:33:39.668Z,69.40
2019-03-01T10:36:08.403Z,68.60
2019-03-01T10:38:37.101Z,64.40
2019-03-01T10:41:08.898Z,68.90
2019-03-01T10:43:37.952Z,70.00
2019-03-01T10:46:09.359Z,71.80
2019-03-01T10:48:38.140Z,72.70
2019-03-01T10:51:06.903Z,71.90
2019-03-01T10:53:35.625Z,69.40
2019-03-01T10:56:05.212Z,68.50
2019-03-01T10:58:34.017Z,65.90
2019-03-01T11:01:02.902Z,65.80
2019-03-01T11:03:31.705Z,66.30
2019-03-01T11:06:00.507Z,69.30
2019-03-01T11:08:29.300Z,68.90
2019-03-01T11:10:59.426Z,69.40
2019-03-01T11:13:28.089Z,68.50
2019-03-01T11:15:56.877Z,68.00
2019-03-01T11:18:25.662Z,69.30
2019-03-01T11:20:54.412Z,70.10
2019-03-01T11:23:23.093Z,71.20
2019-03-01T11:25:51.860Z,70.40
2019-03-01T11:28:21.907Z,69.00
2019-03-01T11:30:50.749Z,68.40
2019-03-01T11:33:19.517Z,66.90
2019-03-01T11:35:48.253Z,65.40
2019-03-01T11:38:18.057Z,64.80
2019-03-01T11:40:46.906Z,65.80
2019-03-01T11:43:15.582Z,64.50
2019-03-01T11:45:44.435Z,63.60
2019-03-01T11:48:13.256Z,65.80
2019-03-01T11:50:42.998Z,66.20
2019-03-01T11:53:13.150Z,67.00
2019-03-01T11:55:41.925Z,68.20
2019-03-01T11:58:10.715Z,68.40
2019-03-01T12:00:51.771Z,66.50
2019-03-01T12:03:12.631Z,66.20
2019-03-01T12:05:41.338Z,67.30
2019-03-01T12:08:10.059Z,65.90
2019-03-01T12:10:38.778Z,64.70
2019-03-01T12:13:07.595Z,61.80
2019-03-01T12:15:36.435Z,58.10
2019-03-01T12:18:05.203Z,57.50
2019-03-01T12:20:34.303Z,57.70
2019-03-01T12:23:03.020Z,55.50
2019-03-01T12:25:31.950Z,54.10
2019-03-01T12:28:03.445Z,56.20
2019-03-01T12:30:33.827Z,59.10
2019-03-01T12:33:04.106Z,58.80
2019-03-01T12:35:34.209Z,58.30
2019-03-01T12:38:03.094Z,59.30
2019-03-01T12:40:32.264Z,62.60
2019-03-01T12:43:00.991Z,62.70
2019-03-01T12:45:29.779Z,61.50
2019-03-01T12:47:58.674Z,63.20
2019-03-01T12:50:28.110Z,62.50
2019-03-01T12:52:56.855Z,59.70
2019-03-01T12:55:29.921Z,59.80
2019-03-01T12:57:58.789Z,59.90
2019-03-01T13:00:35.648Z,60.20
2019-03-01T13:03:05.340Z,58.50
2019-03-01T13:05:34.967Z,61.40
2019-03-01T13:08:03.887Z,60.30
2019-03-01T13:10:40.278Z,59.10
2019-03-01T13:13:10.747Z,61.60
2019-03-01T13:15:39.730Z,60.50
2019-03-01T13:18:10.276Z,59.20
2019-03-01T13:20:39.506Z,58.00
2019-03-01T13:23:08.705Z,57.50
2019-03-01T13:25:37.512Z,58.20
2019-03-01T13:28:06.482Z,60.40
2019-03-01T13:30:37.157Z,61.50
2019-03-01T13:33:06.074Z,59.90
2019-03-01T13:35:34.898Z,59.40
2019-03-01T13:38:04.098Z,59.30
2019-03-01T13:40:33.038Z,58.20
2019-03-01T13:43:02.787Z,58.80
2019-03-01T13:45:32.006Z,59.90
2019-03-01T13:48:08.000Z,60.30
2019-03-01T13:50:38.290Z,59.60
2019-03-01T13:53:09.679Z,59.50
2019-03-01T13:55:40.856Z,60.10
2019-03-01T13:58:12.584Z,59.90
2019-03-01T14:00:41.881Z,60.50
2019-03-01T14:03:11.204Z,59.60
2019-03-01T14:05:41.404Z,59.30
2019-03-01T14:08:11.272Z,58.90
2019-03-01T14:10:41.904Z,58.30
2019-03-01T14:13:11.150Z,58.10
2019-03-01T14:15:41.301Z,60.60
2019-03-01T14:18:10.267Z,59.40
2019-03-01T14:20:39.221Z,58.50
2019-03-01T14:23:08.050Z,59.50
2019-03-01T14:25:38.620Z,61.70
2019-03-01T14:28:07.363Z,60.80
2019-03-01T14:30:36.291Z,59.60
2019-03-01T14:33:09.317Z,58.90
2019-03-01T14:35:42.014Z,59.70
2019-03-01T14:38:12.304Z,58.50
2019-03-01T14:40:41.233Z,58.50
2019-03-01T14:43:10.022Z,58.60
2019-03-01T14:45:41.703Z,60.10
2019-03-01T14:48:09.672Z,60.20
2019-03-01T14:50:38.568Z,61.00
2019-03-01T14:53:07.886Z,60.60
2019-03-01T14:55:48.307Z,59.60
2019-03-01T14:58:39.622Z,59.00
2019-03-01T15:01:47.712Z,57.50
2019-03-01T15:04:17.154Z,57.00
2019-03-01T15:06:45.947Z,56.10
2019-03-01T15:09:16.878Z,56.80
2019-03-01T15:11:45.336Z,56.20
2019-03-01T15:14:14.209Z,56.40
2019-03-01T15:16:44.411Z,56.20
2019-03-01T15:19:13.449Z,55.50
2019-03-01T15:21:42.311Z,56.20
2019-03-01T15:24:11.139Z,56.80
2019-03-01T15:26:40.148Z,55.90
2019-03-01T15:29:10.431Z,56.60
2019-03-01T15:31:39.328Z,57.30
2019-03-01T15:34:09.228Z,57.80
2019-03-01T15:36:40.042Z,57.90
2019-03-01T15:39:09.506Z,58.30
2019-03-01T15:41:42.091Z,57.50
2019-03-01T15:44:11.667Z,58.10
2019-03-01T15:46:41.881Z,57.80
2019-03-01T15:49:15.247Z,57.30
2019-03-01T15:51:43.110Z,58.00
2019-03-01T15:54:11.959Z,58.00
2019-03-01T15:56:43.012Z,57.10
2019-03-01T15:59:14.748Z,56.90
2019-03-01T16:01:47.216Z,57.10
2019-03-01T16:04:15.124Z,57.20
2019-03-01T16:06:44.198Z,57.90
2019-03-01T16:09:15.281Z,58.10
2019-03-01T16:11:44.090Z,57.00
2019-03-01T16:14:12.996Z,59.50
2019-03-01T16:16:45.790Z,57.90
2019-03-01T16:19:16.885Z,56.90
2019-03-01T16:21:45.739Z,58.00
2019-03-01T16:24:14.700Z,57.50
2019-03-01T16:26:44.005Z,57.50
2019-03-01T16:29:14.880Z,57.50
2019-03-01T16:31:44.050Z,58.10
2019-03-01T16:34:17.421Z,58.40
2019-03-01T16:36:48.939Z,59.80
2019-03-01T16:39:20.502Z,60.30
2019-03-01T16:41:48.241Z,59.60
2019-03-01T16:44:17.227Z,59.00
2019-03-01T16:46:47.091Z,59.30
2019-03-01T16:49:15.908Z,60.50
2019-03-01T16:51:46.887Z,59.50
2019-03-01T16:54:16.491Z,60.20
2019-03-01T16:56:45.392Z,60.90
2019-03-01T16:59:15.740Z,60.80
2019-03-01T17:04:38.672Z,61.40
2019-03-01T17:07:28.614Z,61.60
2019-03-01T17:09:56.043Z,63.00
2019-03-01T17:12:24.856Z,61.80
2019-03-01T17:14:53.632Z,61.80
2019-03-01T17:17:22.511Z,63.40
2019-03-01T17:19:53.287Z,62.70
2019-03-01T17:22:23.188Z,63.70
2019-03-01T17:24:53.612Z,63.70
2019-03-01T17:27:23.917Z,63.40
2019-03-01T17:29:52.782Z,62.90
2019-03-01T17:32:21.639Z,61.60
2019-03-01T17:34:52.069Z,61.00
2019-03-01T17:37:21.027Z,61.40
2019-03-01T17:39:53.063Z,61.90
2019-03-01T17:42:20.748Z,61.30
2019-03-01T17:44:53.936Z,62.30
2019-03-01T17:47:23.154Z,61.40
2019-03-01T17:49:51.996Z,62.20
2019-03-01T17:52:23.091Z,62.30
2019-03-01T17:54:52.247Z,63.50
2019-03-01T17:57:21.718Z,62.20
2019-03-01T17:59:50.562Z,61.90
2019-03-01T18:02:23.598Z,61.30
2019-03-01T18:04:54.119Z,60.60
2019-03-01T18:07:23.816Z,60.80
2019-03-01T18:09:58.370Z,60.60
2019-03-01T18:12:30.195Z,60.80
2019-03-01T18:14:59.058Z,60.00
2019-03-01T18:17:32.981Z,60.40
2019-03-01T18:20:01.542Z,60.60
2019-03-01T18:22:31.701Z,59.80
2019-03-01T18:25:00.890Z,60.40
2019-03-01T18:27:29.758Z,61.10
2019-03-01T18:29:59.991Z,61.10
2019-03-01T18:32:28.909Z,60.80
2019-03-01T18:34:57.773Z,59.60
2019-03-01T18:37:26.693Z,61.10
2019-03-01T18:39:55.559Z,60.80
2019-03-01T18:42:25.330Z,62.00
2019-03-01T18:44:56.192Z,62.30
2019-03-01T18:47:27.909Z,61.90
2019-03-01T18:49:56.198Z,62.90
2019-03-01T18:55:19.893Z,62.90
2019-03-01T18:57:49.529Z,61.80
2019-03-01T19:00:24.022Z,62.20
2019-03-01T19:02:53.196Z,63.00
2019-03-01T19:05:21.931Z,62.90
2019-03-01T19:07:50.693Z,62.40
2019-03-01T19:10:27.568Z,63.00
2019-03-01T19:12:54.698Z,63.00
2019-03-01T19:15:23.558Z,62.30
2019-03-01T19:17:52.504Z,61.30
2019-03-01T19:20:24.345Z,61.20
2019-03-01T19:23:03.766Z,61.80
2019-03-01T19:25:34.252Z,61.70
2019-03-01T19:28:03.732Z,62.30
2019-03-01T19:30:34.259Z,62.20
2019-03-01T19:33:03.437Z,61.50
2019-03-01T19:35:33.198Z,60.80
2019-03-01T19:38:05.095Z,61.30
2019-03-01T19:40:33.978Z,63.30
2019-03-01T19:43:03.105Z,62.50
2019-03-01T19:45:32.159Z,62.40
2019-03-01T19:48:02.969Z,61.40
2019-03-01T19:50:31.601Z,61.20
2019-03-01T19:53:01.416Z,61.50
2019-03-01T19:55:30.265Z,60.10
2019-03-01T19:58:00.229Z,61.00
2019-03-01T20:00:31.032Z,60.60
2019-03-01T20:02:59.998Z,61.40
2019-03-01T20:05:38.359Z,62.40
2019-03-01T20:08:07.321Z,62.90
2019-03-01T20:10:36.950Z,62.40
2019-03-01T20:13:06.957Z,64.10
2019-03-01T20:15:36.367Z,65.00
2019-03-01T20:18:06.689Z,64.80
2019-03-01T20:20:36.786Z,63.70
2019-03-01T20:23:05.982Z,63.90
2019-03-01T20:25:34.778Z,62.60
2019-03-01T20:28:03.533Z,62.00
2019-03-01T20:30:37.237Z,62.50
2019-03-01T20:33:06.631Z,63.40
2019-03-01T20:35:36.089Z,64.10
2019-03-01T20:38:04.860Z,65.20
2019-03-01T20:40:33.649Z,65.40
2019-03-01T20:43:06.627Z,64.10
2019-03-01T20:45:38.355Z,63.60
2019-03-01T20:48:07.070Z,64.00
2019-03-01T20:50:36.543Z,63.50
2019-03-01T20:53:05.484Z,62.80
2019-03-01T20:55:37.190Z,63.50
2019-03-01T20:58:04.675Z,63.40
2019-03-01T21:00:33.467Z,63.30
2019-03-01T21:03:02.316Z,63.10
2019-03-01T21:05:31.122Z,62.70
2019-03-01T21:08:00.322Z,63.30
2019-03-01T21:16:21.257Z,62.60
2019-03-01T21:18:50.224Z,63.00
2019-03-01T21:21:19.092Z,62.80
2019-03-01T21:23:50.965Z,62.60
2019-03-01T21:26:18.596Z,62.70
2019-03-01T21:28:47.575Z,62.50
2019-03-01T21:31:16.508Z,62.30
2019-03-01T21:33:45.376Z,62.10
2019-03-01T21:36:14.874Z,61.40
2019-03-01T21:38:45.662Z,61.00
2019-03-01T21:41:14.505Z,59.70
2019-03-01T21:43:43.322Z,61.10
2019-03-01T21:46:12.018Z,62.10
2019-03-01T21:48:40.845Z,62.20
2019-03-01T21:51:09.650Z,61.90
2019-03-01T21:53:39.918Z,61.80
2019-03-01T21:56:08.909Z,61.90
2019-03-01T21:58:41.599Z,62.20
2019-03-01T22:01:08.979Z,62.60
2019-03-01T22:03:37.969Z,62.90
2019-03-01T22:06:06.794Z,63.90
2019-03-01T22:08:36.472Z,64.50
2019-03-01T22:11:05.356Z,62.80
2019-03-01T22:13:35.764Z,63.90
2019-03-01T22:16:04.567Z,65.80
2019-03-01T22:18:33.427Z,65.70
2019-03-01T22:21:02.631Z,64.10
2019-03-01T22:23:31.404Z,63.30
2019-03-01T22:26:00.243Z,63.10
2019-03-01T22:28:28.974Z,62.70
2019-03-01T22:31:00.315Z,62.00
2019-03-01T22:33:28.427Z,61.80
2019-03-01T22:35:57.555Z,61.30
2019-03-01T22:38:30.341Z,62.50
2019-03-01T22:41:03.886Z,62.90
2019-03-01T22:43:31.090Z,65.20
2019-03-01T22:45:59.814Z,65.40
2019-03-01T22:48:28.651Z,65.10
2019-03-01T22:50:57.419Z,65.00
2019-03-01T22:53:26.247Z,65.80
2019-03-01T22:55:56.431Z,65.30
2019-03-01T22:58:26.690Z,65.70
2019-03-01T23:00:59.997Z,65.40
2019-03-01T23:03:28.752Z,66.40
2019-03-01T23:05:57.576Z,66.40
2019-03-01T23:08:26.838Z,65.90
2019-03-01T23:10:56.953Z,65.30
2019-03-01T23:13:26.505Z,63.70
2019-03-01T23:15:55.785Z,63.80
2019-03-01T23:18:25.411Z,65.90
2019-03-01T23:20:57.690Z,68.10
2019-03-01T23:23:26.264Z,67.70
2019-03-01T23:25:55.181Z,66.20
2019-03-01T23:28:24.363Z,65.80
2019-03-01T23:30:53.229Z,65.00
2019-03-01T23:33:22.088Z,64.20
2019-03-01T23:35:52.953Z,63.00
2019-03-01T23:38:21.606Z,62.40
2019-03-01T23:40:50.474Z,61.40
2019-03-01T23:43:19.285Z,61.20
2019-03-01T23:45:49.977Z,60.40
2019-03-01T23:48:21.227Z,59.80
2019-03-01T23:50:50.824Z,60.00
2019-03-01T23:53:19.678Z,60.20
2019-03-01T23:55:50.987Z,61.20
2019-03-01T23:58:19.810Z,60.60
